createdAt,value
2023-06-08T00:04:05.733Z,9.10
2023-06-08T00:09:04.773Z,9.60
2023-06-08T00:14:04.802Z,9.60
2023-06-08T00:19:04.398Z,9.00
2023-06-08T00:24:05.359Z,9.20
2023-06-08T00:29:04.455Z,9.40
2023-06-08T00:34:04.603Z,9.20
2023-06-08T00:39:04.821Z,9.40
2023-06-08T00:44:05.073Z,9.80
2023-06-08T00:49:07.972Z,8.70
2023-06-08T00:54:05.059Z,9.30
2023-06-08T00:59:05.757Z,9.40
2023-06-08T01:04:06.046Z,9.30
2023-06-08T01:09:15.542Z,10.50
2023-06-08T01:14:14.219Z,10.40
2023-06-08T01:19:10.723Z,10.30
2023-06-08T01:24:12.296Z,11.20
2023-06-08T01:29:06.241Z,11.10
2023-06-08T01:34:05.609Z,10.70
2023-06-08T01:39:11.365Z,11.00
2023-06-08T01:44:06.878Z,10.70
2023-06-08T01:49:06.410Z,10.60
2023-06-08T01:54:06.850Z,11.20
2023-06-08T01:59:04.464Z,14.40
2023-06-08T02:04:05.051Z,10.70
2023-06-08T02:09:04.467Z,10.80
2023-06-08T02:14:04.572Z,11.40
2023-06-08T02:19:04.357Z,11.00
2023-06-08T02:24:05.218Z,11.10
2023-06-08T02:29:04.323Z,10.50
2023-06-08T02:34:04.411Z,10.70
2023-06-08T02:39:04.636Z,10.80
2023-06-08T02:44:04.555Z,10.20
2023-06-08T02:49:04.398Z,10.80
2023-06-08T02:54:04.837Z,10.20
2023-06-08T02:59:07.187Z,10.10
2023-06-08T03:04:04.470Z,10.20
2023-06-08T03:09:04.571Z,9.70
2023-06-08T03:14:04.497Z,9.70
2023-06-08T03:19:04.303Z,9.40
2023-06-08T03:24:05.103Z,8.90
2023-06-08T03:29:04.526Z,9.10
2023-06-08T03:34:04.797Z,9.00
2023-06-08T03:39:05.081Z,9.00
2023-06-08T03:44:05.750Z,8.60
2023-06-08T03:49:04.906Z,7.90
2023-06-08T03:54:04.741Z,7.70
2023-06-08T03:59:04.765Z,8.00
2023-06-08T04:04:04.410Z,7.80
2023-06-08T04:09:04.982Z,8.00
2023-06-08T04:14:04.414Z,7.60
2023-06-08T04:19:04.288Z,6.90
2023-06-08T04:24:05.756Z,6.80
2023-06-08T04:29:04.497Z,7.40
2023-06-08T04:34:04.384Z,7.00
2023-06-08T04:39:04.570Z,6.70
2023-06-08T04:44:05.519Z,6.80
2023-06-08T04:49:04.667Z,6.50
2023-06-08T04:54:04.689Z,6.50
2023-06-08T04:59:04.367Z,6.70
2023-06-08T05:04:07.753Z,6.20
2023-06-08T05:09:04.555Z,6.90
2023-06-08T05:14:04.546Z,6.30
2023-06-08T05:19:05.510Z,6.90
2023-06-08T05:24:06.372Z,6.50
2023-06-08T05:29:04.244Z,6.90
2023-06-08T05:34:04.584Z,6.50
2023-06-08T05:39:05.091Z,6.10
2023-06-08T05:44:04.659Z,5.90
2023-06-08T05:49:04.437Z,5.90
2023-06-08T05:54:04.921Z,5.50
2023-06-08T05:59:04.179Z,5.00
2023-06-08T06:04:04.411Z,4.90
2023-06-08T06:09:04.513Z,5.50
2023-06-08T06:14:04.498Z,4.30
2023-06-08T06:19:04.229Z,4.60
2023-06-08T06:24:05.464Z,4.20
2023-06-08T06:29:04.168Z,3.60
2023-06-08T06:35:02.981Z,3.50
2023-06-08T06:39:04.463Z,3.70
2023-06-08T06:44:05.236Z,3.70
2023-06-08T06:49:04.497Z,3.90
2023-06-08T06:54:04.256Z,3.10
2023-06-08T06:59:05.569Z,3.00
2023-06-08T07:04:05.375Z,2.90
2023-06-08T07:09:04.515Z,3.20
2023-06-08T07:14:04.168Z,2.80
2023-06-08T07:19:04.596Z,3.00
2023-06-08T07:24:44.756Z,3.00
2023-06-08T07:29:04.432Z,3.00
2023-06-08T07:34:04.629Z,3.20
2023-06-08T07:39:04.274Z,3.10
2023-06-08T07:44:04.209Z,2.70
2023-06-08T07:49:04.654Z,2.80
2023-06-08T07:54:05.026Z,3.10
2023-06-08T07:59:04.169Z,3.10
2023-06-08T08:04:04.568Z,3.20
2023-06-08T08:09:04.375Z,3.70
2023-06-08T08:14:09.458Z,2.70
2023-06-08T08:19:04.586Z,3.00
2023-06-08T08:24:05.720Z,3.00
2023-06-08T08:29:04.311Z,2.90
2023-06-08T08:34:04.827Z,3.00
2023-06-08T08:39:04.177Z,3.00
2023-06-08T08:44:08.683Z,2.60
2023-06-08T08:49:08.997Z,2.80
2023-06-08T08:54:05.331Z,2.60
2023-06-08T08:59:05.758Z,2.40
2023-06-08T09:04:04.498Z,2.30
2023-06-08T09:09:05.726Z,2.80
2023-06-08T09:14:06.642Z,2.40
2023-06-08T09:19:05.809Z,2.50
2023-06-08T09:24:08.312Z,3.30
2023-06-08T09:29:05.146Z,2.30
2023-06-08T09:34:05.559Z,2.70
2023-06-08T09:39:06.100Z,2.70
2023-06-08T09:44:18.267Z,2.50
2023-06-08T09:49:06.545Z,2.70
2023-06-08T09:54:06.704Z,2.70
2023-06-08T09:59:07.603Z,2.40
2023-06-08T10:04:14.055Z,2.40
2023-06-08T10:09:05.944Z,2.60
2023-06-08T10:14:04.427Z,2.70
2023-06-08T10:19:04.643Z,2.60
2023-06-08T10:24:05.747Z,2.70
2023-06-08T10:29:20.748Z,2.30
2023-06-08T10:34:06.335Z,2.70
2023-06-08T10:39:07.213Z,3.10
2023-06-08T10:44:04.522Z,2.80
2023-06-08T10:49:05.282Z,2.50
2023-06-08T10:54:06.397Z,3.00
2023-06-08T10:59:04.129Z,2.50
2023-06-08T11:04:09.046Z,2.50
2023-06-08T11:09:04.250Z,2.60
2023-06-08T11:14:04.109Z,2.70
2023-06-08T11:19:09.159Z,2.80
2023-06-08T11:24:04.450Z,2.70
2023-06-08T11:29:04.137Z,2.80
2023-06-08T11:34:04.322Z,2.80
2023-06-08T11:39:04.296Z,2.60
2023-06-08T11:44:06.254Z,2.90
2023-06-08T11:49:07.482Z,2.70
2023-06-08T11:54:04.547Z,2.70
2023-06-08T11:59:04.243Z,2.40
2023-06-08T12:04:13.675Z,2.30
2023-06-08T12:09:06.594Z,2.70
2023-06-08T12:14:04.218Z,2.60
2023-06-08T12:19:06.649Z,2.90
2023-06-08T12:24:04.863Z,2.40
2023-06-08T12:29:04.990Z,3.00
2023-06-08T12:34:04.774Z,2.50
2023-06-08T12:39:04.297Z,2.80
2023-06-08T12:44:04.085Z,2.60
2023-06-08T12:49:04.396Z,2.70
2023-06-08T12:54:04.125Z,2.70
2023-06-08T12:59:04.063Z,2.90
2023-06-08T13:04:04.530Z,3.50
2023-06-08T13:09:04.086Z,4.40
2023-06-08T13:14:04.220Z,3.40
2023-06-08T13:19:04.601Z,2.90
2023-06-08T13:24:06.954Z,2.60
2023-06-08T13:29:04.001Z,2.80
2023-06-08T13:34:05.332Z,3.10
2023-06-08T13:39:04.100Z,2.80
2023-06-08T13:44:04.376Z,2.70
2023-06-08T13:49:04.605Z,2.80
2023-06-08T13:54:04.129Z,3.10
2023-06-08T13:59:05.215Z,2.80
2023-06-08T14:04:04.390Z,3.20
2023-06-08T14:09:05.186Z,2.90
2023-06-08T14:14:04.056Z,3.00
2023-06-08T14:19:04.583Z,3.00
2023-06-08T14:24:04.539Z,3.00
2023-06-08T14:29:04.104Z,2.80
2023-06-08T14:34:04.264Z,2.90
2023-06-08T14:39:04.043Z,2.70
2023-06-08T14:44:04.049Z,2.90
2023-06-08T14:49:04.332Z,3.10
2023-06-08T14:54:04.045Z,2.80
2023-06-08T14:59:04.195Z,2.70
2023-06-08T15:04:06.274Z,2.70
2023-06-08T15:09:04.141Z,2.90
2023-06-08T15:14:04.119Z,2.60
2023-06-08T15:19:04.402Z,2.90
2023-06-08T15:24:05.084Z,2.40
2023-06-08T15:29:04.099Z,3.10
2023-06-08T15:34:04.119Z,3.00
2023-06-08T15:39:04.499Z,2.80
2023-06-08T15:44:04.749Z,3.00
2023-06-08T15:49:04.195Z,2.70
2023-06-08T15:54:04.053Z,2.90
2023-06-08T15:59:04.425Z,3.00
2023-06-08T16:04:04.103Z,2.60
2023-06-08T16:09:04.068Z,2.70
2023-06-08T16:14:04.225Z,2.90
2023-06-08T16:19:04.617Z,2.70
2023-06-08T16:24:04.387Z,2.60
2023-06-08T16:29:04.000Z,2.80
2023-06-08T16:34:04.492Z,2.90
2023-06-08T16:39:04.457Z,2.70
2023-06-08T16:44:04.487Z,2.80
2023-06-08T16:49:04.421Z,3.00
2023-06-08T16:54:05.286Z,2.80
2023-06-08T16:59:04.031Z,2.70
2023-06-08T17:04:04.316Z,2.40
2023-06-08T17:09:04.058Z,2.80
2023-06-08T17:14:04.225Z,2.60
2023-06-08T17:19:04.498Z,2.90
2023-06-08T17:24:04.746Z,2.90
2023-06-08T17:29:03.918Z,2.60
2023-06-08T17:34:04.772Z,2.90
2023-06-08T17:39:03.980Z,2.60
2023-06-08T17:44:04.232Z,2.40
2023-06-08T17:49:07.439Z,2.20
2023-06-08T17:54:04.243Z,2.50
2023-06-08T17:59:04.167Z,2.70
2023-06-08T18:04:04.941Z,2.60
2023-06-08T18:09:04.110Z,2.70
2023-06-08T18:14:04.085Z,2.30
2023-06-08T18:19:04.078Z,2.50
2023-06-08T18:24:04.718Z,2.90
2023-06-08T18:29:04.102Z,2.60
2023-06-08T18:34:04.686Z,2.40
2023-06-08T18:38:06.575Z,2.50
2023-06-08T18:39:03.959Z,2.50
2023-06-08T18:44:04.410Z,2.60
2023-06-08T18:49:04.024Z,2.90
2023-06-08T18:54:04.005Z,3.00
2023-06-08T18:59:05.855Z,3.10
2023-06-08T19:04:04.003Z,3.10
2023-06-08T19:09:04.040Z,3.00
2023-06-08T19:14:03.852Z,2.80
2023-06-08T19:19:06.785Z,3.20
2023-06-08T19:24:07.003Z,3.20
2023-06-08T19:29:05.426Z,3.60
2023-06-08T19:34:04.421Z,3.30
2023-06-08T19:39:05.549Z,3.30
2023-06-08T19:44:03.983Z,4.00
2023-06-08T19:49:04.280Z,4.80
2023-06-08T19:54:03.978Z,4.20
2023-06-08T19:59:03.902Z,3.80
2023-06-08T20:04:04.376Z,3.70
2023-06-08T20:09:03.848Z,3.80
2023-06-08T20:14:03.873Z,3.80
2023-06-08T20:19:04.209Z,3.70
2023-06-08T20:24:05.672Z,4.20
2023-06-08T20:29:03.970Z,3.50
2023-06-08T20:34:04.161Z,3.80
2023-06-08T20:39:04.833Z,3.60
2023-06-08T20:44:06.380Z,3.60
2023-06-08T20:49:05.014Z,4.00
2023-06-08T20:54:04.116Z,4.00
2023-06-08T20:59:04.132Z,3.80
2023-06-08T21:04:04.394Z,3.50
2023-06-08T21:09:03.863Z,3.20
2023-06-08T21:14:03.901Z,3.70
2023-06-08T21:19:04.881Z,4.20
2023-06-08T21:24:04.098Z,3.50
2023-06-08T21:29:06.247Z,3.70
2023-06-08T21:34:03.868Z,4.00
2023-06-08T21:39:04.081Z,3.80
2023-06-08T21:44:03.807Z,4.10
2023-06-08T21:49:04.175Z,3.90
2023-06-08T21:54:04.045Z,3.80
2023-06-08T21:59:04.033Z,3.90
2023-06-08T22:04:04.519Z,4.40
2023-06-08T22:09:03.998Z,4.40
2023-06-08T22:14:03.986Z,4.40
2023-06-08T22:19:04.604Z,4.50
2023-06-08T22:24:05.598Z,4.40
2023-06-08T22:29:03.894Z,4.70
2023-06-08T22:34:03.946Z,4.90
2023-06-08T22:39:03.796Z,4.70
2023-06-08T22:44:04.267Z,4.90
2023-06-08T22:49:04.239Z,5.50
2023-06-08T22:54:04.158Z,5.70
2023-06-08T22:59:03.876Z,6.00
2023-06-08T23:04:04.248Z,5.70
2023-06-08T23:09:03.957Z,6.80
2023-06-08T23:14:03.799Z,6.00
2023-06-08T23:19:03.972Z,6.40
2023-06-08T23:24:04.371Z,6.90
2023-06-08T23:29:03.884Z,6.60
2023-06-08T23:34:04.961Z,6.90
2023-06-08T23:39:04.441Z,6.60
2023-06-08T23:44:04.006Z,7.00
2023-06-08T23:49:03.933Z,6.50
2023-06-08T23:54:03.881Z,6.50
2023-06-08T23:59:04.077Z,6.70
